sensor_id;sensor_type;location;lat;lon;timestamp;P1;durP1;ratioP1;P2;durP2;ratioP2
16832;SDS011;8533;48.426;10.868;2023-08-20T00:01:28;10.60;;;5.73;;
16832;SDS011;8533;48.426;10.868;2023-08-20T00:03:54;13.23;;;6.10;;
16832;SDS011;8533;48.426;10.868;2023-08-20T00:06:20;11.83;;;6.10;;
16832;SDS011;8533;48.426;10.868;2023-08-20T00:08:46;10.40;;;5.53;;
16832;SDS011;8533;48.426;10.868;2023-08-20T00:11:12;8.23;;;5.50;;
16832;SDS011;8533;48.426;10.868;2023-08-20T00:13:38;9.87;;;5.90;;
16832;SDS011;8533;48.426;10.868;2023-08-20T00:16:04;11.00;;;5.37;;
16832;SDS011;8533;48.426;10.868;2023-08-20T00:18:29;8.17;;;5.33;;
16832;SDS011;8533;48.426;10.868;2023-08-20T00:20:55;10.30;;;5.90;;
16832;SDS011;8533;48.426;10.868;2023-08-20T00:23:21;12.50;;;6.27;;
16832;SDS011;8533;48.426;10.868;2023-08-20T00:25:46;9.07;;;5.77;;
16832;SDS011;8533;48.426;10.868;2023-08-20T00:28:12;11.10;;;6.47;;
16832;SDS011;8533;48.426;10.868;2023-08-20T00:30:38;9.30;;;6.10;;
16832;SDS011;8533;48.426;10.868;2023-08-20T00:33:03;8.63;;;5.27;;
16832;SDS011;8533;48.426;10.868;2023-08-20T00:35:28;11.87;;;5.73;;
16832;SDS011;8533;48.426;10.868;2023-08-20T00:37:54;9.57;;;5.97;;
16832;SDS011;8533;48.426;10.868;2023-08-20T00:40:19;10.27;;;6.30;;
16832;SDS011;8533;48.426;10.868;2023-08-20T00:42:44;7.50;;;6.07;;
16832;SDS011;8533;48.426;10.868;2023-08-20T00:45:10;11.37;;;5.93;;
16832;SDS011;8533;48.426;10.868;2023-08-20T00:47:35;12.67;;;5.93;;
16832;SDS011;8533;48.426;10.868;2023-08-20T00:50:01;12.23;;;5.50;;
16832;SDS011;8533;48.426;10.868;2023-08-20T00:52:30;8.67;;;5.20;;
16832;SDS011;8533;48.426;10.868;2023-08-20T00:54:56;9.70;;;5.10;;
16832;SDS011;8533;48.426;10.868;2023-08-20T00:57:22;8.47;;;5.23;;
16832;SDS011;8533;48.426;10.868;2023-08-20T00:59:48;9.83;;;5.47;;
16832;SDS011;8533;48.426;10.868;2023-08-20T01:02:15;8.33;;;5.47;;
16832;SDS011;8533;48.426;10.868;2023-08-20T01:04:42;9.67;;;5.37;;
16832;SDS011;8533;48.426;10.868;2023-08-20T01:10:13;8.47;;;5.50;;
16832;SDS011;8533;48.426;10.868;2023-08-20T01:12:44;9.97;;;5.67;;
16832;SDS011;8533;48.426;10.868;2023-08-20T01:15:29;10.53;;;5.80;;
16832;SDS011;8533;48.426;10.868;2023-08-20T01:17:54;9.60;;;6.23;;
16832;SDS011;8533;48.426;10.868;2023-08-20T01:20:20;7.73;;;5.57;;
16832;SDS011;8533;48.426;10.868;2023-08-20T01:25:30;9.67;;;5.17;;
16832;SDS011;8533;48.426;10.868;2023-08-20T01:30:49;6.50;;;5.10;;
16832;SDS011;8533;48.426;10.868;2023-08-20T01:33:15;8.13;;;5.67;;
16832;SDS011;8533;48.426;10.868;2023-08-20T01:35:41;8.17;;;5.60;;
16832;SDS011;8533;48.426;10.868;2023-08-20T01:38:06;8.90;;;5.37;;
16832;SDS011;8533;48.426;10.868;2023-08-20T01:40:32;8.97;;;5.50;;
16832;SDS011;8533;48.426;10.868;2023-08-20T01:42:58;9.03;;;5.80;;
16832;SDS011;8533;48.426;10.868;2023-08-20T01:45:23;7.23;;;5.33;;
16832;SDS011;8533;48.426;10.868;2023-08-20T01:47:49;6.27;;;5.27;;
16832;SDS011;8533;48.426;10.868;2023-08-20T01:50:14;10.73;;;5.90;;
16832;SDS011;8533;48.426;10.868;2023-08-20T01:52:40;7.20;;;5.43;;
16832;SDS011;8533;48.426;10.868;2023-08-20T01:55:05;11.13;;;6.60;;
16832;SDS011;8533;48.426;10.868;2023-08-20T01:57:31;11.27;;;6.40;;
16832;SDS011;8533;48.426;10.868;2023-08-20T01:59:57;10.73;;;5.97;;
16832;SDS011;8533;48.426;10.868;2023-08-20T02:02:23;8.87;;;5.67;;
16832;SDS011;8533;48.426;10.868;2023-08-20T02:04:48;8.40;;;5.53;;
16832;SDS011;8533;48.426;10.868;2023-08-20T02:07:13;12.50;;;6.30;;
16832;SDS011;8533;48.426;10.868;2023-08-20T02:09:39;9.03;;;6.00;;
16832;SDS011;8533;48.426;10.868;2023-08-20T02:12:04;7.30;;;5.83;;
16832;SDS011;8533;48.426;10.868;2023-08-20T02:14:30;9.47;;;5.67;;
16832;SDS011;8533;48.426;10.868;2023-08-20T02:16:59;10.50;;;6.00;;
16832;SDS011;8533;48.426;10.868;2023-08-20T02:19:25;11.93;;;6.60;;
16832;SDS011;8533;48.426;10.868;2023-08-20T02:21:50;11.60;;;5.80;;
16832;SDS011;8533;48.426;10.868;2023-08-20T02:24:15;11.13;;;6.30;;
16832;SDS011;8533;48.426;10.868;2023-08-20T02:26:40;9.63;;;6.13;;
16832;SDS011;8533;48.426;10.868;2023-08-20T02:29:06;11.40;;;6.50;;
16832;SDS011;8533;48.426;10.868;2023-08-20T02:31:31;10.83;;;6.67;;
16832;SDS011;8533;48.426;10.868;2023-08-20T02:33:56;10.30;;;6.40;;
16832;SDS011;8533;48.426;10.868;2023-08-20T02:36:21;8.50;;;5.80;;
16832;SDS011;8533;48.426;10.868;2023-08-20T02:38:47;12.70;;;6.60;;
16832;SDS011;8533;48.426;10.868;2023-08-20T02:41:12;8.37;;;6.27;;
16832;SDS011;8533;48.426;10.868;2023-08-20T02:43:37;8.00;;;5.83;;
16832;SDS011;8533;48.426;10.868;2023-08-20T02:46:03;7.83;;;5.67;;
16832;SDS011;8533;48.426;10.868;2023-08-20T02:48:29;11.53;;;7.00;;
16832;SDS011;8533;48.426;10.868;2023-08-20T02:50:54;9.60;;;6.17;;
16832;SDS011;8533;48.426;10.868;2023-08-20T02:53:20;9.40;;;6.50;;
16832;SDS011;8533;48.426;10.868;2023-08-20T02:55:46;10.17;;;6.07;;
16832;SDS011;8533;48.426;10.868;2023-08-20T02:58:11;12.67;;;5.93;;
16832;SDS011;8533;48.426;10.868;2023-08-20T03:00:37;11.20;;;5.93;;
16832;SDS011;8533;48.426;10.868;2023-08-20T03:03:03;12.17;;;6.60;;
16832;SDS011;8533;48.426;10.868;2023-08-20T03:05:34;11.23;;;6.67;;
16832;SDS011;8533;48.426;10.868;2023-08-20T03:08:00;10.77;;;6.63;;
16832;SDS011;8533;48.426;10.868;2023-08-20T03:10:26;10.33;;;6.80;;
16832;SDS011;8533;48.426;10.868;2023-08-20T03:12:52;10.13;;;6.47;;
16832;SDS011;8533;48.426;10.868;2023-08-20T03:15:17;11.47;;;6.50;;
16832;SDS011;8533;48.426;10.868;2023-08-20T03:17:42;9.53;;;6.43;;
16832;SDS011;8533;48.426;10.868;2023-08-20T03:20:08;9.70;;;6.47;;
16832;SDS011;8533;48.426;10.868;2023-08-20T03:22:35;10.00;;;6.73;;
16832;SDS011;8533;48.426;10.868;2023-08-20T03:25:01;12.13;;;6.87;;
16832;SDS011;8533;48.426;10.868;2023-08-20T03:27:27;10.37;;;6.03;;
16832;SDS011;8533;48.426;10.868;2023-08-20T03:29:52;12.10;;;6.23;;
16832;SDS011;8533;48.426;10.868;2023-08-20T03:32:18;12.17;;;6.00;;
16832;SDS011;8533;48.426;10.868;2023-08-20T03:34:43;14.13;;;6.90;;
16832;SDS011;8533;48.426;10.868;2023-08-20T03:37:08;10.27;;;6.23;;
16832;SDS011;8533;48.426;10.868;2023-08-20T03:39:34;9.23;;;6.67;;
16832;SDS011;8533;48.426;10.868;2023-08-20T03:41:59;10.30;;;6.77;;
16832;SDS011;8533;48.426;10.868;2023-08-20T03:44:24;10.47;;;6.77;;
16832;SDS011;8533;48.426;10.868;2023-08-20T03:46:49;11.40;;;6.07;;
16832;SDS011;8533;48.426;10.868;2023-08-20T03:49:15;10.83;;;6.70;;
16832;SDS011;8533;48.426;10.868;2023-08-20T03:51:40;13.03;;;6.40;;
16832;SDS011;8533;48.426;10.868;2023-08-20T03:54:07;10.83;;;6.23;;
16832;SDS011;8533;48.426;10.868;2023-08-20T03:56:32;11.37;;;6.57;;
16832;SDS011;8533;48.426;10.868;2023-08-20T03:58:58;11.20;;;6.63;;
16832;SDS011;8533;48.426;10.868;2023-08-20T04:01:23;9.17;;;6.50;;
16832;SDS011;8533;48.426;10.868;2023-08-20T04:03:48;8.97;;;6.10;;
16832;SDS011;8533;48.426;10.868;2023-08-20T04:06:14;15.43;;;6.23;;
16832;SDS011;8533;48.426;10.868;2023-08-20T04:08:40;17.50;;;6.83;;
16832;SDS011;8533;48.426;10.868;2023-08-20T04:11:05;9.43;;;6.00;;
16832;SDS011;8533;48.426;10.868;2023-08-20T04:13:30;12.27;;;6.53;;
16832;SDS011;8533;48.426;10.868;2023-08-20T04:15:56;9.67;;;6.70;;
16832;SDS011;8533;48.426;10.868;2023-08-20T04:18:22;15.37;;;7.37;;
16832;SDS011;8533;48.426;10.868;2023-08-20T04:20:49;13.17;;;7.10;;
16832;SDS011;8533;48.426;10.868;2023-08-20T04:23:16;10.60;;;6.60;;
16832;SDS011;8533;48.426;10.868;2023-08-20T04:25:41;10.07;;;6.40;;
16832;SDS011;8533;48.426;10.868;2023-08-20T04:28:06;10.33;;;7.30;;
16832;SDS011;8533;48.426;10.868;2023-08-20T04:30:32;11.30;;;6.73;;
16832;SDS011;8533;48.426;10.868;2023-08-20T04:32:59;10.37;;;6.30;;
16832;SDS011;8533;48.426;10.868;2023-08-20T04:35:24;14.47;;;6.47;;
16832;SDS011;8533;48.426;10.868;2023-08-20T04:37:50;15.43;;;6.80;;
16832;SDS011;8533;48.426;10.868;2023-08-20T04:40:15;9.80;;;6.40;;
16832;SDS011;8533;48.426;10.868;2023-08-20T04:42:40;10.53;;;6.40;;
16832;SDS011;8533;48.426;10.868;2023-08-20T04:45:06;9.03;;;6.30;;
16832;SDS011;8533;48.426;10.868;2023-08-20T04:47:31;9.63;;;5.90;;
16832;SDS011;8533;48.426;10.868;2023-08-20T04:49:57;11.43;;;6.67;;
16832;SDS011;8533;48.426;10.868;2023-08-20T04:52:23;16.00;;;7.43;;
16832;SDS011;8533;48.426;10.868;2023-08-20T04:54:48;9.30;;;6.80;;
16832;SDS011;8533;48.426;10.868;2023-08-20T04:57:14;11.63;;;6.67;;
16832;SDS011;8533;48.426;10.868;2023-08-20T04:59:39;9.67;;;6.47;;
16832;SDS011;8533;48.426;10.868;2023-08-20T05:02:04;10.57;;;6.33;;
16832;SDS011;8533;48.426;10.868;2023-08-20T05:04:29;10.13;;;6.93;;
16832;SDS011;8533;48.426;10.868;2023-08-20T05:06:55;12.53;;;6.93;;
16832;SDS011;8533;48.426;10.868;2023-08-20T05:09:21;10.77;;;7.33;;
16832;SDS011;8533;48.426;10.868;2023-08-20T05:11:46;11.30;;;6.87;;
16832;SDS011;8533;48.426;10.868;2023-08-20T05:14:11;9.90;;;6.70;;
16832;SDS011;8533;48.426;10.868;2023-08-20T05:16:37;11.07;;;6.93;;
16832;SDS011;8533;48.426;10.868;2023-08-20T05:19:02;10.83;;;6.50;;
16832;SDS011;8533;48.426;10.868;2023-08-20T05:21:27;17.60;;;7.20;;
16832;SDS011;8533;48.426;10.868;2023-08-20T05:23:53;8.53;;;6.47;;
16832;SDS011;8533;48.426;10.868;2023-08-20T05:26:18;12.33;;;6.93;;
16832;SDS011;8533;48.426;10.868;2023-08-20T05:28:43;12.03;;;7.90;;
16832;SDS011;8533;48.426;10.868;2023-08-20T05:31:08;15.03;;;7.00;;
16832;SDS011;8533;48.426;10.868;2023-08-20T05:33:35;10.57;;;7.60;;
16832;SDS011;8533;48.426;10.868;2023-08-20T05:36:01;10.70;;;7.13;;
16832;SDS011;8533;48.426;10.868;2023-08-20T05:38:26;10.20;;;6.77;;
16832;SDS011;8533;48.426;10.868;2023-08-20T05:40:51;19.27;;;8.47;;
16832;SDS011;8533;48.426;10.868;2023-08-20T05:43:16;14.20;;;8.33;;
16832;SDS011;8533;48.426;10.868;2023-08-20T05:45:42;17.50;;;8.53;;
16832;SDS011;8533;48.426;10.868;2023-08-20T05:48:07;10.17;;;8.00;;
16832;SDS011;8533;48.426;10.868;2023-08-20T05:50:32;11.50;;;8.53;;
16832;SDS011;8533;48.426;10.868;2023-08-20T05:52:57;12.47;;;7.53;;
16832;SDS011;8533;48.426;10.868;2023-08-20T05:55:23;13.67;;;8.47;;
16832;SDS011;8533;48.426;10.868;2023-08-20T05:57:49;11.13;;;7.67;;
16832;SDS011;8533;48.426;10.868;2023-08-20T06:00:14;14.10;;;7.63;;
16832;SDS011;8533;48.426;10.868;2023-08-20T06:02:40;13.13;;;7.43;;
16832;SDS011;8533;48.426;10.868;2023-08-20T06:05:06;13.40;;;8.60;;
16832;SDS011;8533;48.426;10.868;2023-08-20T06:07:31;13.47;;;8.23;;
16832;SDS011;8533;48.426;10.868;2023-08-20T06:09:56;14.93;;;9.37;;
16832;SDS011;8533;48.426;10.868;2023-08-20T06:12:22;13.43;;;8.13;;
16832;SDS011;8533;48.426;10.868;2023-08-20T06:14:48;10.87;;;7.37;;
16832;SDS011;8533;48.426;10.868;2023-08-20T06:17:13;13.40;;;8.00;;
16832;SDS011;8533;48.426;10.868;2023-08-20T06:19:38;15.80;;;8.13;;
16832;SDS011;8533;48.426;10.868;2023-08-20T06:22:04;10.97;;;7.30;;
16832;SDS011;8533;48.426;10.868;2023-08-20T06:24:29;11.67;;;7.67;;
16832;SDS011;8533;48.426;10.868;2023-08-20T06:26:54;10.80;;;7.77;;
16832;SDS011;8533;48.426;10.868;2023-08-20T06:29:20;11.13;;;7.37;;
16832;SDS011;8533;48.426;10.868;2023-08-20T06:31:46;8.97;;;6.73;;
16832;SDS011;8533;48.426;10.868;2023-08-20T06:34:12;11.63;;;6.97;;
16832;SDS011;8533;48.426;10.868;2023-08-20T06:36:38;9.50;;;6.80;;
16832;SDS011;8533;48.426;10.868;2023-08-20T06:39:03;9.47;;;7.00;;
16832;SDS011;8533;48.426;10.868;2023-08-20T06:41:29;11.90;;;7.43;;
16832;SDS011;8533;48.426;10.868;2023-08-20T06:43:54;13.23;;;7.60;;
16832;SDS011;8533;48.426;10.868;2023-08-20T06:46:19;13.90;;;7.87;;
16832;SDS011;8533;48.426;10.868;2023-08-20T06:48:44;11.50;;;8.13;;
16832;SDS011;8533;48.426;10.868;2023-08-20T06:51:13;12.83;;;7.60;;
16832;SDS011;8533;48.426;10.868;2023-08-20T06:53:40;12.03;;;8.60;;
16832;SDS011;8533;48.426;10.868;2023-08-20T06:56:07;15.53;;;8.27;;
16832;SDS011;8533;48.426;10.868;2023-08-20T06:58:33;10.63;;;7.73;;
16832;SDS011;8533;48.426;10.868;2023-08-20T07:00:58;15.30;;;8.00;;
16832;SDS011;8533;48.426;10.868;2023-08-20T07:03:32;10.87;;;8.70;;
16832;SDS011;8533;48.426;10.868;2023-08-20T07:05:58;13.43;;;8.03;;
16832;SDS011;8533;48.426;10.868;2023-08-20T07:08:24;15.33;;;8.13;;
16832;SDS011;8533;48.426;10.868;2023-08-20T07:10:49;13.33;;;8.33;;
16832;SDS011;8533;48.426;10.868;2023-08-20T07:13:15;13.37;;;7.83;;
16832;SDS011;8533;48.426;10.868;2023-08-20T07:15:40;15.37;;;8.27;;
16832;SDS011;8533;48.426;10.868;2023-08-20T07:18:05;13.90;;;7.23;;
16832;SDS011;8533;48.426;10.868;2023-08-20T07:20:30;11.77;;;7.40;;
16832;SDS011;8533;48.426;10.868;2023-08-20T07:22:56;10.63;;;7.17;;
16832;SDS011;8533;48.426;10.868;2023-08-20T07:25:21;13.37;;;7.73;;
16832;SDS011;8533;48.426;10.868;2023-08-20T07:27:46;9.53;;;7.23;;
16832;SDS011;8533;48.426;10.868;2023-08-20T07:30:12;9.37;;;6.80;;
16832;SDS011;8533;48.426;10.868;2023-08-20T07:32:37;11.20;;;7.00;;
16832;SDS011;8533;48.426;10.868;2023-08-20T07:35:03;11.90;;;7.60;;
16832;SDS011;8533;48.426;10.868;2023-08-20T07:37:28;8.87;;;6.70;;
16832;SDS011;8533;48.426;10.868;2023-08-20T07:39:53;9.73;;;7.10;;
16832;SDS011;8533;48.426;10.868;2023-08-20T07:42:18;13.47;;;7.20;;
16832;SDS011;8533;48.426;10.868;2023-08-20T07:44:44;11.07;;;7.40;;
16832;SDS011;8533;48.426;10.868;2023-08-20T07:47:09;10.83;;;7.20;;
16832;SDS011;8533;48.426;10.868;2023-08-20T07:49:35;10.50;;;7.30;;
16832;SDS011;8533;48.426;10.868;2023-08-20T07:52:00;15.20;;;9.07;;
16832;SDS011;8533;48.426;10.868;2023-08-20T07:54:25;10.90;;;7.03;;
16832;SDS011;8533;48.426;10.868;2023-08-20T07:56:52;10.33;;;6.53;;
16832;SDS011;8533;48.426;10.868;2023-08-20T07:59:17;11.63;;;7.20;;
16832;SDS011;8533;48.426;10.868;2023-08-20T08:01:42;8.97;;;6.90;;
16832;SDS011;8533;48.426;10.868;2023-08-20T08:04:08;11.10;;;7.27;;
16832;SDS011;8533;48.426;10.868;2023-08-20T08:06:33;10.23;;;7.50;;
16832;SDS011;8533;48.426;10.868;2023-08-20T08:09:14;10.70;;;6.93;;
16832;SDS011;8533;48.426;10.868;2023-08-20T08:11:43;11.57;;;7.07;;
16832;SDS011;8533;48.426;10.868;2023-08-20T08:14:08;10.43;;;7.20;;
16832;SDS011;8533;48.426;10.868;2023-08-20T08:16:35;8.60;;;6.93;;
16832;SDS011;8533;48.426;10.868;2023-08-20T08:19:01;10.53;;;6.93;;
16832;SDS011;8533;48.426;10.868;2023-08-20T08:21:26;15.23;;;6.80;;
16832;SDS011;8533;48.426;10.868;2023-08-20T08:23:51;7.50;;;6.33;;
16832;SDS011;8533;48.426;10.868;2023-08-20T08:26:17;13.80;;;8.13;;
16832;SDS011;8533;48.426;10.868;2023-08-20T08:28:42;10.47;;;6.70;;
16832;SDS011;8533;48.426;10.868;2023-08-20T08:31:07;9.80;;;6.50;;
16832;SDS011;8533;48.426;10.868;2023-08-20T08:33:33;10.17;;;6.90;;
16832;SDS011;8533;48.426;10.868;2023-08-20T08:35:58;8.97;;;6.70;;
16832;SDS011;8533;48.426;10.868;2023-08-20T08:38:23;13.13;;;6.37;;
16832;SDS011;8533;48.426;10.868;2023-08-20T08:40:48;8.10;;;6.63;;
16832;SDS011;8533;48.426;10.868;2023-08-20T08:43:14;8.27;;;6.77;;
16832;SDS011;8533;48.426;10.868;2023-08-20T08:45:42;11.23;;;6.63;;
16832;SDS011;8533;48.426;10.868;2023-08-20T08:48:14;9.87;;;6.80;;
16832;SDS011;8533;48.426;10.868;2023-08-20T08:50:40;9.87;;;6.23;;
16832;SDS011;8533;48.426;10.868;2023-08-20T08:53:06;9.83;;;6.90;;
16832;SDS011;8533;48.426;10.868;2023-08-20T08:55:33;12.27;;;6.53;;
16832;SDS011;8533;48.426;10.868;2023-08-20T08:57:58;11.77;;;6.37;;
16832;SDS011;8533;48.426;10.868;2023-08-20T09:00:24;6.80;;;5.60;;
16832;SDS011;8533;48.426;10.868;2023-08-20T09:02:49;8.50;;;5.93;;
16832;SDS011;8533;48.426;10.868;2023-08-20T09:05:14;10.03;;;6.23;;
16832;SDS011;8533;48.426;10.868;2023-08-20T09:07:41;7.80;;;5.77;;
16832;SDS011;8533;48.426;10.868;2023-08-20T09:10:08;7.30;;;5.53;;
16832;SDS011;8533;48.426;10.868;2023-08-20T09:12:34;7.57;;;5.80;;
16832;SDS011;8533;48.426;10.868;2023-08-20T09:14:59;9.30;;;5.97;;
16832;SDS011;8533;48.426;10.868;2023-08-20T09:17:25;10.33;;;6.13;;
16832;SDS011;8533;48.426;10.868;2023-08-20T09:19:53;11.37;;;6.30;;
16832;SDS011;8533;48.426;10.868;2023-08-20T09:22:20;9.70;;;6.37;;
16832;SDS011;8533;48.426;10.868;2023-08-20T09:24:51;9.60;;;5.73;;
16832;SDS011;8533;48.426;10.868;2023-08-20T09:27:18;7.50;;;5.83;;
16832;SDS011;8533;48.426;10.868;2023-08-20T09:29:44;9.93;;;5.40;;
16832;SDS011;8533;48.426;10.868;2023-08-20T09:32:18;7.33;;;5.27;;
16832;SDS011;8533;48.426;10.868;2023-08-20T09:34:45;7.83;;;5.80;;
16832;SDS011;8533;48.426;10.868;2023-08-20T09:37:14;8.40;;;5.63;;
16832;SDS011;8533;48.426;10.868;2023-08-20T09:39:40;7.80;;;5.20;;
16832;SDS011;8533;48.426;10.868;2023-08-20T09:42:06;6.40;;;4.90;;
16832;SDS011;8533;48.426;10.868;2023-08-20T09:44:33;7.83;;;4.77;;
16832;SDS011;8533;48.426;10.868;2023-08-20T09:47:03;6.57;;;4.53;;
16832;SDS011;8533;48.426;10.868;2023-08-20T09:49:30;7.77;;;5.13;;
16832;SDS011;8533;48.426;10.868;2023-08-20T09:52:00;5.77;;;5.00;;
16832;SDS011;8533;48.426;10.868;2023-08-20T09:57:07;6.77;;;4.73;;
16832;SDS011;8533;48.426;10.868;2023-08-20T09:59:44;8.23;;;4.87;;
16832;SDS011;8533;48.426;10.868;2023-08-20T10:02:11;8.10;;;4.90;;
16832;SDS011;8533;48.426;10.868;2023-08-20T10:04:38;6.00;;;4.47;;
16832;SDS011;8533;48.426;10.868;2023-08-20T10:07:04;9.93;;;4.97;;
16832;SDS011;8533;48.426;10.868;2023-08-20T10:09:30;8.88;;;5.00;;
16832;SDS011;8533;48.426;10.868;2023-08-20T10:11:56;7.85;;;5.15;;
16832;SDS011;8533;48.426;10.868;2023-08-20T10:14:21;5.95;;;4.85;;
16832;SDS011;8533;48.426;10.868;2023-08-20T10:16:47;6.10;;;4.45;;
16832;SDS011;8533;48.426;10.868;2023-08-20T10:19:12;9.77;;;4.68;;
16832;SDS011;8533;48.426;10.868;2023-08-20T10:21:44;5.65;;;4.35;;
16832;SDS011;8533;48.426;10.868;2023-08-20T10:24:10;6.57;;;4.40;;
16832;SDS011;8533;48.426;10.868;2023-08-20T10:26:41;5.60;;;4.40;;
16832;SDS011;8533;48.426;10.868;2023-08-20T10:31:59;4.53;;;3.92;;
16832;SDS011;8533;48.426;10.868;2023-08-20T10:34:35;8.43;;;4.20;;
16832;SDS011;8533;48.426;10.868;2023-08-20T10:37:09;8.05;;;5.22;;
16832;SDS011;8533;48.426;10.868;2023-08-20T10:39:35;8.15;;;4.40;;
16832;SDS011;8533;48.426;10.868;2023-08-20T10:42:07;6.45;;;4.28;;
16832;SDS011;8533;48.426;10.868;2023-08-20T10:44:56;7.07;;;4.68;;
16832;SDS011;8533;48.426;10.868;2023-08-20T10:47:24;6.80;;;4.38;;
16832;SDS011;8533;48.426;10.868;2023-08-20T10:49:51;7.15;;;4.43;;
16832;SDS011;8533;48.426;10.868;2023-08-20T10:52:18;6.47;;;4.50;;
16832;SDS011;8533;48.426;10.868;2023-08-20T10:54:44;7.47;;;4.25;;
16832;SDS011;8533;48.426;10.868;2023-08-20T10:57:10;6.47;;;4.35;;
16832;SDS011;8533;48.426;10.868;2023-08-20T10:59:35;6.78;;;4.20;;
16832;SDS011;8533;48.426;10.868;2023-08-20T11:02:05;6.93;;;4.30;;
16832;SDS011;8533;48.426;10.868;2023-08-20T11:04:38;6.43;;;4.43;;
16832;SDS011;8533;48.426;10.868;2023-08-20T11:07:04;7.05;;;4.57;;
16832;SDS011;8533;48.426;10.868;2023-08-20T11:09:30;5.60;;;4.00;;
16832;SDS011;8533;48.426;10.868;2023-08-20T11:11:56;6.63;;;3.83;;
16832;SDS011;8533;48.426;10.868;2023-08-20T11:14:22;8.15;;;4.20;;
16832;SDS011;8533;48.426;10.868;2023-08-20T11:16:48;4.43;;;3.63;;
16832;SDS011;8533;48.426;10.868;2023-08-20T11:19:14;6.18;;;4.30;;
16832;SDS011;8533;48.426;10.868;2023-08-20T11:21:43;5.65;;;3.92;;
16832;SDS011;8533;48.426;10.868;2023-08-20T11:24:09;6.57;;;4.03;;
16832;SDS011;8533;48.426;10.868;2023-08-20T11:26:35;5.93;;;4.53;;
16832;SDS011;8533;48.426;10.868;2023-08-20T11:29:07;6.22;;;3.83;;
16832;SDS011;8533;48.426;10.868;2023-08-20T11:31:34;4.82;;;3.70;;
16832;SDS011;8533;48.426;10.868;2023-08-20T11:34:01;5.72;;;4.35;;
16832;SDS011;8533;48.426;10.868;2023-08-20T11:36:28;5.78;;;4.30;;
16832;SDS011;8533;48.426;10.868;2023-08-20T11:38:53;9.07;;;4.15;;
16832;SDS011;8533;48.426;10.868;2023-08-20T11:41:19;5.30;;;3.95;;
16832;SDS011;8533;48.426;10.868;2023-08-20T11:43:45;12.70;;;4.50;;
16832;SDS011;8533;48.426;10.868;2023-08-20T11:46:14;7.70;;;4.13;;
16832;SDS011;8533;48.426;10.868;2023-08-20T11:49:00;4.32;;;3.85;;
16832;SDS011;8533;48.426;10.868;2023-08-20T11:51:26;7.22;;;4.10;;
16832;SDS011;8533;48.426;10.868;2023-08-20T11:53:52;5.82;;;4.00;;
16832;SDS011;8533;48.426;10.868;2023-08-20T11:56:17;6.55;;;4.72;;
16832;SDS011;8533;48.426;10.868;2023-08-20T11:58:43;5.80;;;4.63;;
16832;SDS011;8533;48.426;10.868;2023-08-20T12:01:08;10.68;;;4.30;;
16832;SDS011;8533;48.426;10.868;2023-08-20T12:03:34;7.25;;;3.85;;
16832;SDS011;8533;48.426;10.868;2023-08-20T12:06:16;5.75;;;3.80;;
16832;SDS011;8533;48.426;10.868;2023-08-20T12:08:42;7.38;;;4.72;;
16832;SDS011;8533;48.426;10.868;2023-08-20T12:11:08;5.93;;;4.10;;
16832;SDS011;8533;48.426;10.868;2023-08-20T12:13:33;6.90;;;4.25;;
16832;SDS011;8533;48.426;10.868;2023-08-20T12:15:58;5.72;;;4.38;;
16832;SDS011;8533;48.426;10.868;2023-08-20T12:18:23;6.00;;;4.10;;
16832;SDS011;8533;48.426;10.868;2023-08-20T12:20:49;5.47;;;4.10;;
16832;SDS011;8533;48.426;10.868;2023-08-20T12:23:14;5.85;;;3.78;;
16832;SDS011;8533;48.426;10.868;2023-08-20T12:25:39;5.28;;;3.88;;
16832;SDS011;8533;48.426;10.868;2023-08-20T12:28:04;5.93;;;3.88;;
16832;SDS011;8533;48.426;10.868;2023-08-20T12:30:31;6.22;;;4.35;;
16832;SDS011;8533;48.426;10.868;2023-08-20T12:32:57;4.65;;;3.47;;
16832;SDS011;8533;48.426;10.868;2023-08-20T12:35:22;6.25;;;3.95;;
16832;SDS011;8533;48.426;10.868;2023-08-20T12:37:47;4.57;;;4.00;;
16832;SDS011;8533;48.426;10.868;2023-08-20T12:40:13;7.97;;;4.60;;
16832;SDS011;8533;48.426;10.868;2023-08-20T12:42:38;6.53;;;4.15;;
16832;SDS011;8533;48.426;10.868;2023-08-20T12:45:07;7.53;;;4.30;;
16832;SDS011;8533;48.426;10.868;2023-08-20T12:47:33;7.78;;;4.03;;
16832;SDS011;8533;48.426;10.868;2023-08-20T12:49:59;6.25;;;3.90;;
16832;SDS011;8533;48.426;10.868;2023-08-20T12:52:25;4.25;;;3.72;;
16832;SDS011;8533;48.426;10.868;2023-08-20T12:54:50;7.47;;;3.90;;
16832;SDS011;8533;48.426;10.868;2023-08-20T12:57:15;4.45;;;3.90;;
16832;SDS011;8533;48.426;10.868;2023-08-20T12:59:40;4.28;;;3.72;;
16832;SDS011;8533;48.426;10.868;2023-08-20T13:02:06;7.85;;;4.35;;
16832;SDS011;8533;48.426;10.868;2023-08-20T13:04:31;6.07;;;4.20;;
16832;SDS011;8533;48.426;10.868;2023-08-20T13:06:57;5.00;;;3.95;;
16832;SDS011;8533;48.426;10.868;2023-08-20T13:09:22;6.93;;;4.10;;
16832;SDS011;8533;48.426;10.868;2023-08-20T13:11:48;8.13;;;3.88;;
16832;SDS011;8533;48.426;10.868;2023-08-20T13:14:18;4.63;;;4.15;;
16832;SDS011;8533;48.426;10.868;2023-08-20T13:16:43;7.75;;;4.18;;
16832;SDS011;8533;48.426;10.868;2023-08-20T13:19:09;6.60;;;3.70;;
16832;SDS011;8533;48.426;10.868;2023-08-20T13:21:34;3.78;;;3.47;;
16832;SDS011;8533;48.426;10.868;2023-08-20T13:24:00;6.20;;;3.70;;
16832;SDS011;8533;48.426;10.868;2023-08-20T13:26:25;5.80;;;3.72;;
16832;SDS011;8533;48.426;10.868;2023-08-20T13:28:50;5.82;;;3.85;;
16832;SDS011;8533;48.426;10.868;2023-08-20T13:31:15;4.20;;;3.80;;
16832;SDS011;8533;48.426;10.868;2023-08-20T13:33:41;6.43;;;4.10;;
16832;SDS011;8533;48.426;10.868;2023-08-20T13:36:06;4.93;;;4.10;;
16832;SDS011;8533;48.426;10.868;2023-08-20T13:38:32;5.95;;;3.97;;
16832;SDS011;8533;48.426;10.868;2023-08-20T13:40:58;7.22;;;4.32;;
16832;SDS011;8533;48.426;10.868;2023-08-20T13:43:23;5.60;;;4.05;;
16832;SDS011;8533;48.426;10.868;2023-08-20T13:45:48;7.35;;;4.00;;
16832;SDS011;8533;48.426;10.868;2023-08-20T13:48:14;6.00;;;3.70;;
16832;SDS011;8533;48.426;10.868;2023-08-20T13:50:39;7.03;;;3.67;;
16832;SDS011;8533;48.426;10.868;2023-08-20T13:53:04;6.95;;;4.35;;
16832;SDS011;8533;48.426;10.868;2023-08-20T13:55:30;7.55;;;4.00;;
16832;SDS011;8533;48.426;10.868;2023-08-20T13:57:56;5.07;;;4.13;;
16832;SDS011;8533;48.426;10.868;2023-08-20T14:00:21;4.40;;;3.78;;
16832;SDS011;8533;48.426;10.868;2023-08-20T14:02:47;9.25;;;3.85;;
16832;SDS011;8533;48.426;10.868;2023-08-20T14:05:12;4.97;;;4.00;;
16832;SDS011;8533;48.426;10.868;2023-08-20T14:07:38;10.25;;;4.05;;
16832;SDS011;8533;48.426;10.868;2023-08-20T14:10:03;5.00;;;4.13;;
16832;SDS011;8533;48.426;10.868;2023-08-20T14:12:29;5.10;;;3.88;;
16832;SDS011;8533;48.426;10.868;2023-08-20T14:14:55;5.15;;;3.80;;
16832;SDS011;8533;48.426;10.868;2023-08-20T14:17:20;9.13;;;4.18;;
16832;SDS011;8533;48.426;10.868;2023-08-20T14:19:45;6.00;;;4.15;;
16832;SDS011;8533;48.426;10.868;2023-08-20T14:22:11;6.90;;;4.45;;
16832;SDS011;8533;48.426;10.868;2023-08-20T14:24:36;5.77;;;3.97;;
16832;SDS011;8533;48.426;10.868;2023-08-20T14:27:01;6.07;;;4.10;;
16832;SDS011;8533;48.426;10.868;2023-08-20T14:29:27;7.33;;;4.10;;
16832;SDS011;8533;48.426;10.868;2023-08-20T14:31:53;8.82;;;4.20;;
16832;SDS011;8533;48.426;10.868;2023-08-20T14:34:18;4.83;;;3.90;;
16832;SDS011;8533;48.426;10.868;2023-08-20T14:36:44;4.97;;;3.97;;
16832;SDS011;8533;48.426;10.868;2023-08-20T14:39:09;5.20;;;4.03;;
16832;SDS011;8533;48.426;10.868;2023-08-20T14:41:34;6.20;;;4.00;;
16832;SDS011;8533;48.426;10.868;2023-08-20T14:44:00;4.67;;;3.80;;
16832;SDS011;8533;48.426;10.868;2023-08-20T14:46:25;6.70;;;4.40;;
16832;SDS011;8533;48.426;10.868;2023-08-20T14:48:51;7.30;;;4.17;;
16832;SDS011;8533;48.426;10.868;2023-08-20T14:51:16;5.40;;;4.00;;